RAIN

Not for real navigation. The accuracy of this data is not assured See disclaimer for more information



ICAO NAME COUNTRY WIND Kt GUST Kt VIS m TEMP/DEW C BARO METAR
PPIZ Point Lay, Point Lay LRRS Airp AK United States 3 0 400 -11/-12 30.18 PPIZ 230910Z AUTO 12003KT 0.25SM -SN FZFG OVC002 M11/M12 A3018 RMK AO2 P0000 FZRANO TS
K24A 3 0 800 11/11 29.89 K24A 230935Z AUTO 21003KT 0.5SM RA FG OVC003 11/11 A2989 RMK AO2 LTG NOOP N S AND NW P0007 T01150114
PABA Barter Island, Barter Island L AK United States 0 0 800 -13/-16 30.18 PABA 230858Z AUTO 00000KT 0.5SM -SN FZFG OVC002 M13/M16 A3018 RMK AO2 P0000 FZRANO TS
KGVL GILMER MEMORIAL AIRPORT GA United States 7 0 800 14/14 29.85 KGVL 230928Z AUTO 09007KT 0.5SM VCTS RA FG VV002 14/14 A2985 RMK AO2 LTG NOOP SW RAB22 P0004 T014401
KSFM Sanford, Sanford Regional Airp ME United States 0 0 1200 0/0 30.00 KSFM 230935Z AUTO 00000KT 0.75SM BR VV001 00/00 A3000 RMK AO2 FZRANO RVRNO

Show more